Time;durP1;ratioP1;P1;durP2;ratioP2;P2;SDS_P1;SDS_P2;PMS_P1;PMS_P2;Temp;Humidity;BMP_temperature;BMP_pressure;BME280_temperature;BME280_humidity;BME280_pressure;Samples;Min_cycle;Max_cycle;Signal;HPM_P1;HPM_P2
2022/08/27 00:01:37;;;;;;;7.67;7.07;;;23.70;53.70;;;;;;20865;6810;117220;-87
2022/08/27 00:04:02;;;;;;;8.90;8.30;;;23.40;54.00;;;;;;20528;6838;281093;-87
2022/08/27 00:06:28;;;;;;;8.33;7.07;;;23.50;54.10;;;;;;20716;6851;117776;-87
2022/08/27 00:08:53;;;;;;;9.15;8.55;;;23.50;54.20;;;;;;20529;6851;278917;-87
2022/08/27 00:11:19;;;;;;;8.73;8.13;;;23.70;54.20;;;;;;20740;6851;120183;-87
2022/08/27 00:13:45;;;;;;;10.43;9.65;;;23.60;54.10;;;;;;20519;6851;338284;-87
2022/08/27 00:16:10;;;;;;;8.97;8.20;;;23.80;54.00;;;;;;20735;6851;119281;-87
2022/08/27 00:18:36;;;;;;;8.80;8.20;;;23.70;54.50;;;;;;20677;6852;119457;-87
2022/08/27 00:21:02;;;;;;;9.63;9.00;;;23.40;54.50;;;;;;20529;6850;308744;-87
2022/08/27 00:23:28;;;;;;;9.07;8.30;;;23.60;54.50;;;;;;20743;6850;117343;-87
2022/08/27 00:25:53;;;;;;;8.93;8.23;;;23.60;54.50;;;;;;20707;6856;119445;-87
2022/08/27 00:28:19;;;;;;;8.90;8.20;;;23.40;54.90;;;;;;20721;6838;117928;-87
2022/08/27 00:30:44;;;;;;;8.55;7.95;;;23.30;55.40;;;;;;20774;6838;117872;-87
2022/08/27 00:33:10;;;;;;;9.60;8.90;;;23.20;55.60;;;;;;20565;6840;278981;-87
2022/08/27 00:35:36;;;;;;;9.20;8.60;;;23.40;55.30;;;;;;20777;6840;117730;-87
2022/08/27 00:38:01;;;;;;;9.33;7.53;;;23.50;55.10;;;;;;20807;6826;117467;-87
2022/08/27 00:40:27;;;;;;;8.43;7.50;;;23.30;55.20;;;;;;20804;6826;117926;-87
2022/08/27 00:42:52;;;;;;;7.93;7.33;;;23.20;55.70;;;;;;20815;6826;117285;-87
2022/08/27 00:45:18;;;;;;;8.57;7.93;;;23.00;56.00;;;;;;20610;6826;277743;-87
2022/08/27 00:47:53;;;;;;;7.97;7.40;;;23.20;55.80;;;;;;20809;6826;117167;-87
2022/08/27 00:50:16;;;;;;;9.20;8.50;;;23.30;55.70;;;;;;20489;6852;307318;-87
2022/08/27 00:52:51;;;;;;;8.95;8.38;;;23.50;55.30;;;;;;20564;6836;279476;-87
2022/08/27 00:55:17;;;;;;;9.20;8.60;;;23.90;54.90;;;;;;20545;6836;307440;-87
2022/08/27 00:57:44;;;;;;;9.03;8.43;;;24.10;54.10;;;;;;20752;6839;119550;-87
2022/08/27 01:00:10;;;;;;;9.60;8.97;;;24.00;54.20;;;;;;20763;6839;117541;-87
2022/08/27 01:02:35;;;;;;;8.33;7.63;;;23.70;54.80;;;;;;20717;6847;119073;-87
2022/08/27 01:05:11;;;;;;;8.10;7.50;;;23.50;55.10;;;;;;20539;6847;306655;-87
2022/08/27 01:07:37;;;;;;;8.13;7.63;;;23.60;55.00;;;;;;20454;6840;308341;-87
2022/08/27 01:10:02;;;;;;;6.77;6.30;;;23.90;54.50;;;;;;20771;6840;117461;-87
2022/08/27 01:12:28;;;;;;;7.67;7.03;;;23.80;54.50;;;;;;20734;6840;119104;-87
2022/08/27 01:14:53;;;;;;;7.70;7.13;;;23.50;54.90;;;;;;20547;6840;309028;-87
2022/08/27 01:17:19;;;;;;;6.97;6.57;;;23.60;54.80;;;;;;20766;6841;116642;-87
2022/08/27 01:19:55;;;;;;;7.20;6.80;;;23.60;54.90;;;;;;20555;6841;310056;-87
2022/08/27 01:22:31;;;;;;;7.50;7.00;;;23.50;54.80;;;;;;20730;6830;118033;-87
2022/08/27 01:24:57;;;;;;;7.20;6.70;;;23.50;55.00;;;;;;20516;6855;289500;-88
2022/08/27 01:27:23;;;;;;;7.35;6.95;;;23.60;55.00;;;;;;20806;6828;119328;-90
2022/08/27 01:29:48;;;;;;;7.03;6.60;;;23.50;55.10;;;;;;20712;6855;117412;-88
2022/08/27 01:32:14;;;;;;;8.00;7.50;;;23.30;55.50;;;;;;20529;6828;278586;-90
2022/08/27 01:34:40;;;;;;;7.53;6.93;;;23.40;55.40;;;;;;20769;6844;66962;-86
2022/08/27 01:37:05;;;;;;;7.23;6.67;;;23.40;55.40;;;;;;20751;6844;117241;-86
2022/08/27 01:39:34;;;;;;;8.70;8.13;;;23.20;55.70;;;;;;20539;6850;337904;-87
2022/08/27 01:42:03;;;;;;;8.47;7.93;;;23.40;55.30;;;;;;20750;6850;117259;-86
2022/08/27 01:44:32;;;;;;;8.40;7.70;;;23.20;55.50;;;;;;20730;6846;117415;-87
2022/08/27 01:46:58;;;;;;;9.27;8.50;;;23.20;55.60;;;;;;20523;6846;336340;-86
2022/08/27 01:49:24;;;;;;;7.87;7.33;;;23.40;55.60;;;;;;20765;6846;118446;-86
2022/08/27 01:51:49;;;;;;;8.40;7.75;;;23.40;55.40;;;;;;20516;6846;311299;-87
2022/08/27 01:54:14;;;;;;;8.43;7.80;;;23.50;55.30;;;;;;20514;6846;278535;-87
2022/08/27 01:56:40;;;;;;;8.10;7.60;;;23.80;54.90;;;;;;20527;6846;312836;-87
2022/08/27 01:59:06;;;;;;;8.63;7.93;;;24.00;54.40;;;;;;20541;6846;310061;-87
2022/08/27 02:01:31;;;;;;;7.65;7.20;;;24.10;54.10;;;;;;20757;6846;117386;-87
2022/08/27 02:03:59;;;;;;;8.83;8.27;;;23.90;54.40;;;;;;20548;6846;278804;-86
2022/08/27 02:06:24;;;;;;;8.57;8.00;;;23.90;54.70;;;;;;20511;6846;336905;-87
2022/08/27 02:08:49;;;;;;;7.97;7.17;;;24.00;54.20;;;;;;20756;6846;117415;-89
2022/08/27 02:11:15;;;;;;;7.70;7.20;;;23.80;54.50;;;;;;20756;6846;117149;-86
2022/08/27 02:13:41;;;;;;;8.70;8.03;;;23.20;55.50;;;;;;20762;6846;117178;-86
2022/08/27 02:16:07;;;;;;;8.57;7.97;;;23.20;55.60;;;;;;20754;6846;118035;-87
2022/08/27 02:18:33;;;;;;;9.60;9.00;;;23.20;56.90;;;;;;20531;6843;309106;-87
2022/08/27 02:20:59;;;;;;;9.55;8.93;;;23.20;56.20;;;;;;20539;6845;307728;-86
2022/08/27 02:23:25;;;;;;;9.83;9.20;;;23.50;55.70;;;;;;20550;6845;307750;-87
2022/08/27 02:25:51;;;;;;;9.60;9.03;;;23.80;55.40;;;;;;20543;6845;308230;-86
2022/08/27 02:28:17;;;;;;;10.93;10.05;;;23.90;55.00;;;;;;20528;6845;278697;-87
2022/08/27 02:30:42;;;;;;;9.20;8.47;;;24.00;54.80;;;;;;20758;6845;119580;-86
2022/08/27 02:33:08;;;;;;;11.03;10.33;;;23.70;55.30;;;;;;20542;6845;310323;-87
2022/08/27 02:35:37;;;;;;;10.53;9.73;;;23.70;55.30;;;;;;20754;6845;119692;-86
2022/08/27 02:38:02;;;;;;;11.60;10.75;;;23.60;56.20;;;;;;20541;6846;278250;-87
2022/08/27 02:40:28;;;;;;;10.93;10.25;;;23.60;55.90;;;;;;20524;6846;307757;-86
2022/08/27 02:42:53;;;;;;;11.50;10.80;;;23.70;55.30;;;;;;20562;6846;278706;-86
2022/08/27 02:45:19;;;;;;;9.73;9.13;;;23.90;55.10;;;;;;20776;6846;120049;-87
2022/08/27 02:47:44;;;;;;;9.77;9.17;;;23.70;55.30;;;;;;20768;6846;117766;-86
2022/08/27 02:50:10;;;;;;;10.10;9.40;;;23.40;56.00;;;;;;20610;6846;278204;-88
2022/08/27 02:52:35;;;;;;;10.93;10.17;;;23.40;56.20;;;;;;20576;6846;307510;-87
2022/08/27 02:55:01;;;;;;;10.02;8.85;;;23.60;55.80;;;;;;20823;6846;118544;-86
2022/08/27 02:57:26;;;;;;;9.07;8.47;;;23.50;56.00;;;;;;20820;6846;119544;-87
2022/08/27 02:59:52;;;;;;;10.90;9.10;;;23.20;56.50;;;;;;20810;6846;119531;-87
2022/08/27 03:02:18;;;;;;;10.37;9.67;;;23.10;57.60;;;;;;20532;6846;278479;-89
2022/08/27 03:04:44;;;;;;;10.13;9.43;;;23.10;57.00;;;;;;20521;6846;309128;-87
2022/08/27 03:07:10;;;;;;;10.73;9.82;;;23.40;56.40;;;;;;20541;6846;337347;-86
2022/08/27 03:09:35;;;;;;;9.40;8.70;;;23.70;55.80;;;;;;20758;6846;118052;-86
2022/08/27 03:12:01;;;;;;;8.30;7.70;;;23.60;55.90;;;;;;20759;6846;117736;-87
2022/08/27 03:14:26;;;;;;;9.63;8.93;;;23.30;56.30;;;;;;20533;6846;279033;-86
2022/08/27 03:16:52;;;;;;;10.05;9.43;;;23.40;56.10;;;;;;20545;6846;341495;-86
2022/08/27 03:19:18;;;;;;;9.53;8.83;;;23.60;56.40;;;;;;20759;6846;117724;-86
2022/08/27 03:21:44;;;;;;;11.20;10.30;;;23.60;55.60;;;;;;20759;6846;120059;-88
2022/08/27 03:24:11;;;;;;;10.57;9.77;;;23.30;56.00;;;;;;20749;6846;118030;-86
2022/08/27 03:26:36;;;;;;;12.97;11.93;;;23.10;56.50;;;;;;20734;6846;120026;-86
2022/08/27 03:29:01;;;;;;;11.98;10.98;;;22.90;56.90;;;;;;20755;6846;120184;-86
2022/08/27 03:31:28;;;;;;;13.70;12.60;;;22.80;57.30;;;;;;20756;6844;118423;-86
2022/08/27 03:33:56;;;;;;;15.70;14.40;;;22.70;57.60;;;;;;20550;6845;281111;-86
2022/08/27 03:36:22;;;;;;;13.10;12.10;;;23.00;57.10;;;;;;20728;6845;117678;-86
2022/08/27 03:38:48;;;;;;;15.33;13.77;;;23.00;57.10;;;;;;20755;6845;118303;-87
2022/08/27 03:41:14;;;;;;;16.73;15.43;;;22.90;57.30;;;;;;20544;6845;278706;-86
2022/08/27 03:43:39;;;;;;;14.77;13.67;;;23.10;57.10;;;;;;20751;6845;118131;-86
2022/08/27 03:46:04;;;;;;;16.50;15.30;;;23.20;56.90;;;;;;20540;6845;310380;-86
2022/08/27 03:48:30;;;;;;;16.10;15.00;;;23.40;56.70;;;;;;20517;6845;307935;-87
2022/08/27 03:50:56;;;;;;;16.43;15.20;;;23.70;55.80;;;;;;20542;6846;321353;-87
2022/08/27 03:53:21;;;;;;;14.87;13.82;;;23.90;55.20;;;;;;20543;6846;292445;-86
2022/08/27 03:55:47;;;;;;;13.13;12.07;;;24.00;54.70;;;;;;20755;6846;117716;-86
2022/08/27 03:58:12;;;;;;;13.17;12.17;;;23.80;55.10;;;;;;20759;6846;118029;-87
2022/08/27 04:00:38;;;;;;;14.87;13.77;;;23.40;55.70;;;;;;20523;6846;308174;-86
2022/08/27 04:03:04;;;;;;;14.77;13.47;;;23.50;56.00;;;;;;20756;6846;117632;-86
2022/08/27 04:05:29;;;;;;;13.62;12.57;;;23.30;56.00;;;;;;20751;6846;117640;-87
2022/08/27 04:07:55;;;;;;;13.77;12.67;;;23.10;56.50;;;;;;20763;6846;117815;-86
2022/08/27 04:10:21;;;;;;;17.80;16.50;;;22.90;57.00;;;;;;20527;6846;278267;-86
2022/08/27 04:12:46;;;;;;;14.70;13.67;;;23.10;57.00;;;;;;20754;6846;119697;-86
2022/08/27 04:15:11;;;;;;;18.00;16.60;;;23.10;56.80;;;;;;20550;6846;277882;-87
2022/08/27 04:17:37;;;;;;;16.10;14.90;;;23.20;56.60;;;;;;20737;6846;119615;-87
2022/08/27 04:20:03;;;;;;;14.67;13.57;;;23.20;56.60;;;;;;20752;6846;117839;-86
2022/08/27 04:22:30;;;;;;;16.37;15.00;;;23.00;57.00;;;;;;20727;6846;118319;-86
2022/08/27 04:24:56;;;;;;;16.83;15.63;;;22.80;57.30;;;;;;20543;6846;307921;-87
2022/08/27 04:27:21;;;;;;;16.53;15.33;;;23.00;57.20;;;;;;20755;6846;117786;-86
2022/08/27 04:29:47;;;;;;;17.73;16.43;;;23.00;56.90;;;;;;20547;6846;278324;-87
2022/08/27 04:32:13;;;;;;;14.87;13.77;;;23.10;56.80;;;;;;20753;6846;117734;-87
2022/08/27 04:34:39;;;;;;;15.63;14.55;;;23.20;56.70;;;;;;20409;6846;280298;-87
2022/08/27 04:37:05;;;;;;;15.93;14.82;;;23.20;56.70;;;;;;20541;6846;339284;-86
2022/08/27 04:39:31;;;;;;;15.47;14.37;;;23.50;56.20;;;;;;20544;6846;278347;-86
2022/08/27 04:41:57;;;;;;;16.47;15.27;;;23.70;55.70;;;;;;20545;6844;332538;-86
2022/08/27 04:44:22;;;;;;;16.20;15.05;;;23.80;55.30;;;;;;20523;6845;310102;-87
2022/08/27 04:46:49;;;;;;;16.13;14.83;;;23.80;55.30;;;;;;20753;6845;117777;-88
2022/08/27 04:49:14;;;;;;;15.37;14.17;;;23.70;55.20;;;;;;20754;6845;117595;-87
2022/08/27 04:51:40;;;;;;;14.93;13.83;;;23.10;56.30;;;;;;20755;6845;117564;-87
2022/08/27 04:54:06;;;;;;;16.70;15.50;;;23.30;56.20;;;;;;20545;6845;278204;-86
2022/08/27 04:56:33;;;;;;;17.98;16.62;;;23.60;55.60;;;;;;20525;6845;277620;-87
2022/08/27 04:58:58;;;;;;;15.00;13.90;;;23.60;55.60;;;;;;20755;6845;120277;-90
2022/08/27 05:01:24;;;;;;;19.17;17.67;;;23.50;55.60;;;;;;20762;6846;117905;-87
2022/08/27 05:03:49;;;;;;;19.97;18.17;;;23.30;56.10;;;;;;20755;6846;118002;-86
2022/08/27 05:06:15;;;;;;;24.75;22.75;;;23.00;56.20;;;;;;20534;6846;281617;-86
2022/08/27 05:08:40;;;;;;;26.40;24.20;;;23.20;55.90;;;;;;20541;6846;307377;-89
2022/08/27 05:11:09;;;;;;;27.53;25.23;;;23.50;55.30;;;;;;20544;6846;307506;-87
2022/08/27 05:13:36;;;;;;;26.87;24.57;;;23.80;54.90;;;;;;20751;6846;117576;-87
2022/08/27 05:16:01;;;;;;;27.50;25.13;;;23.70;55.00;;;;;;20537;6846;309557;-87
2022/08/27 05:18:26;;;;;;;27.67;25.17;;;23.70;54.70;;;;;;20731;6846;117511;-87
2022/08/27 05:20:52;;;;;;;27.53;25.23;;;23.60;55.00;;;;;;20539;6846;308597;-89
2022/08/27 05:23:17;;;;;;;29.33;26.63;;;23.60;55.30;;;;;;20755;6846;120422;-86
2022/08/27 05:25:44;;;;;;;25.33;23.43;;;23.70;55.40;;;;;;20535;6846;308114;-87
2022/08/27 05:28:09;;;;;;;17.65;16.15;;;23.60;55.30;;;;;;20534;6846;340578;-86
2022/08/27 05:30:38;;;;;;;16.93;15.57;;;23.90;55.60;;;;;;20525;6846;307724;-87
2022/08/27 05:33:03;;;;;;;15.57;14.40;;;24.00;55.20;;;;;;20526;6846;307562;-86
2022/08/27 05:35:30;;;;;;;16.50;15.10;;;24.10;54.90;;;;;;20760;6846;117414;-86
2022/08/27 05:37:54;;;;;;;17.93;16.43;;;23.90;55.30;;;;;;20804;6846;117891;-88
2022/08/27 05:40:20;;;;;;;17.57;16.27;;;23.60;56.10;;;;;;20798;6611;277657;-87
2022/08/27 05:42:55;;;;;;;18.20;16.80;;;23.70;56.20;;;;;;20766;6736;304757;-87
2022/08/27 05:45:32;;;;;;;16.73;15.37;;;23.80;56.10;;;;;;20931;6736;117024;-89
2022/08/27 05:48:09;;;;;;;16.30;15.07;;;23.70;55.90;;;;;;21028;6701;117643;-87
2022/08/27 05:50:43;;;;;;;16.47;15.07;;;23.50;56.50;;;;;;20974;6716;118393;-86
2022/08/27 05:53:21;;;;;;;15.53;14.33;;;23.10;57.30;;;;;;20994;6717;116475;-86
2022/08/27 05:55:56;;;;;;;16.73;15.57;;;23.10;57.30;;;;;;20777;6716;277568;-89
2022/08/27 06:01:27;;;;;;;15.00;13.77;;;23.80;56.40;;;;;;21045;6620;116313;-88
2022/08/27 06:04:04;;;;;;;15.77;14.57;;;23.70;56.40;;;;;;21024;6734;116438;-88
2022/08/27 06:06:40;;;;;;;16.13;14.87;;;23.50;56.70;;;;;;20783;6753;116921;-88
2022/08/27 06:09:16;;;;;;;15.43;14.17;;;23.30;57.10;;;;;;20663;6729;305490;-88
2022/08/27 06:11:52;;;;;;;19.40;18.00;;;23.50;57.30;;;;;;20852;6716;304245;-89
2022/08/27 06:14:28;;;;;;;19.13;17.63;;;23.90;57.10;;;;;;21037;6716;117320;-88
2022/08/27 06:17:05;;;;;;;20.37;18.77;;;23.90;56.20;;;;;;20701;6776;306069;-93
2022/08/27 06:19:41;;;;;;;18.60;17.20;;;24.00;55.10;;;;;;20851;6716;333151;-87
2022/08/27 06:22:16;;;;;;;20.43;18.70;;;24.30;55.10;;;;;;20741;6733;117022;-88
2022/08/27 06:24:51;;;;;;;19.63;17.93;;;24.30;55.10;;;;;;20915;6736;117150;-89
2022/08/27 06:27:37;;;;;;;;;;;;;;;;;;;;;
2022/08/27 06:30:03;;;;;;;22.80;20.63;;;23.80;55.60;;;;;;20779;6726;118005;-90
2022/08/27 06:32:38;;;;;;;22.43;20.53;;;23.70;55.70;;;;;;20727;6752;116625;-89
2022/08/27 06:35:14;;;;;;;26.07;23.57;;;23.60;55.80;;;;;;20672;6711;116014;-89
2022/08/27 06:37:50;;;;;;;28.07;25.67;;;23.70;56.00;;;;;;20628;6725;306217;-88
2022/08/27 06:40:25;;;;;;;28.23;25.92;;;24.00;54.90;;;;;;20858;6725;297615;-90
2022/08/27 06:43:02;;;;;;;26.13;23.63;;;24.50;53.80;;;;;;20919;6741;116540;-89
2022/08/27 06:45:37;;;;;;;27.13;25.03;;;24.50;53.90;;;;;;20521;6735;275839;-89
2022/08/27 06:48:13;;;;;;;25.62;23.42;;;24.70;53.90;;;;;;20627;6749;335599;-89
2022/08/27 07:15:14;;;;;;;26.60;24.20;;;23.80;56.10;;;;;;21320;6532;88707;-87
2022/08/27 07:17:40;;;;;;;28.00;25.70;;;23.80;56.20;;;;;;20439;6823;338128;-88
2022/08/27 07:20:07;;;;;;;25.90;23.50;;;24.10;55.00;;;;;;20623;6892;117958;-86
2022/08/27 07:22:32;;;;;;;29.73;27.13;;;24.20;54.80;;;;;;20413;6884;279826;-87
2022/08/27 07:24:58;;;;;;;29.67;26.77;;;24.60;54.10;;;;;;20684;6873;118432;-87
2022/08/27 07:27:24;;;;;;;28.60;26.07;;;24.60;54.40;;;;;;20632;6887;117909;-88
2022/08/27 07:29:50;;;;;;;31.77;28.90;;;24.40;54.60;;;;;;20471;6878;310422;-87
2022/08/27 07:32:17;;;;;;;27.40;25.00;;;24.50;54.40;;;;;;20650;6878;117733;-87
2022/08/27 07:34:43;;;;;;;33.45;30.25;;;24.50;54.40;;;;;;20450;6878;309236;-88
2022/08/27 07:37:08;;;;;;;33.53;30.37;;;24.70;54.80;;;;;;20451;6878;312372;-86
2022/08/27 07:39:34;;;;;;;32.33;28.87;;;25.00;54.10;;;;;;20675;6875;117921;-87
2022/08/27 07:44:44;;;;;;;32.40;29.70;;;24.60;54.40;;;;;;20453;6875;281370;-86
2022/08/27 07:47:10;;;;;;;33.27;30.37;;;24.70;54.40;;;;;;20431;6876;279834;-87
2022/08/27 07:49:36;;;;;;;33.43;30.53;;;25.00;54.20;;;;;;20455;6876;278419;-86
2022/08/27 07:52:01;;;;;;;32.87;29.63;;;25.30;54.00;;;;;;20642;6884;118911;-87
2022/08/27 07:54:27;;;;;;;31.97;29.27;;;25.20;54.00;;;;;;20435;6876;279282;-87
2022/08/27 07:56:52;;;;;;;35.20;32.00;;;25.20;53.70;;;;;;20435;6894;310057;-87
2022/08/27 07:59:18;;;;;;;30.30;27.53;;;25.40;53.40;;;;;;20651;6897;117019;-87
2022/08/27 08:01:44;;;;;;;34.22;31.27;;;25.20;53.60;;;;;;20389;6899;310265;-88
2022/08/27 08:04:09;;;;;;;29.83;27.13;;;25.20;53.30;;;;;;20656;6879;119893;-87
2022/08/27 08:06:37;;;;;;;29.37;26.70;;;24.80;54.30;;;;;;20638;6879;118108;-87
2022/08/27 08:09:04;;;;;;;33.40;30.50;;;24.80;54.30;;;;;;20443;6879;309613;-88
2022/08/27 08:11:31;;;;;;;33.42;30.60;;;24.90;54.10;;;;;;20393;6879;310413;-88
2022/08/27 08:13:58;;;;;;;31.57;28.63;;;25.10;53.40;;;;;;20617;6879;118641;-90
2022/08/27 08:16:27;;;;;;;33.22;30.23;;;25.10;53.60;;;;;;20378;6879;338862;-88
2022/08/27 08:18:54;;;;;;;33.93;31.03;;;25.30;53.60;;;;;;20439;6878;280386;-87
2022/08/27 08:21:20;;;;;;;32.10;29.27;;;25.20;53.50;;;;;;20453;6878;301366;-88
2022/08/27 08:23:48;;;;;;;31.93;28.77;;;25.50;53.30;;;;;;20668;6878;121013;-87
2022/08/27 08:26:11;;;;;;;30.60;27.80;;;25.40;53.40;;;;;;20663;6876;118250;-88
2022/08/27 08:28:37;;;;;;;32.35;29.48;;;25.00;53.70;;;;;;20437;6877;280267;-90
2022/08/27 08:31:02;;;;;;;31.70;28.93;;;25.10;53.60;;;;;;20440;6877;312674;-88
2022/08/27 08:33:30;;;;;;;30.90;28.13;;;25.40;53.10;;;;;;20652;6877;117707;-88
2022/08/27 08:35:55;;;;;;;31.43;28.60;;;25.30;53.00;;;;;;20442;6878;306820;-87
2022/08/27 08:38:20;;;;;;;31.80;29.10;;;25.20;52.90;;;;;;20401;6878;309187;-87
2022/08/27 08:40:49;;;;;;;34.40;31.30;;;25.40;52.90;;;;;;20435;6878;311296;-87
2022/08/27 08:43:27;;;;;;;32.37;29.27;;;25.60;52.60;;;;;;20662;6878;120358;-88
2022/08/27 08:45:56;;;;;;;32.47;29.47;;;25.40;53.00;;;;;;20444;6878;308903;-91
2022/08/27 08:48:21;;;;;;;28.37;25.73;;;25.40;53.40;;;;;;20625;6878;118287;-87
2022/08/27 08:50:54;;;;;;;31.00;28.05;;;25.20;53.70;;;;;;20663;6878;117851;-87
2022/08/27 08:53:47;;;;;;;29.97;27.03;;;25.00;54.10;;;;;;20655;6878;118074;-88
2022/08/27 08:56:19;;;;;;;32.30;29.47;;;24.70;54.50;;;;;;20430;6878;309533;-87
2022/08/27 08:58:44;;;;;;;29.33;26.40;;;24.80;54.50;;;;;;20493;6878;67309;-88
2022/08/27 09:01:10;;;;;;;29.53;26.73;;;24.70;54.40;;;;;;20659;6878;116807;-88
2022/08/27 09:03:35;;;;;;;31.60;28.60;;;24.50;54.80;;;;;;20657;6878;120206;-88
2022/08/27 09:06:02;;;;;;;30.53;27.93;;;24.10;56.10;;;;;;20650;6878;118068;-89
2022/08/27 09:08:29;;;;;;;29.93;27.07;;;24.10;55.50;;;;;;20605;6878;118586;-89
2022/08/27 09:11:13;;;;;;;32.75;29.85;;;24.00;56.00;;;;;;20437;6878;321347;-88
2022/08/27 09:13:42;;;;;;;31.50;28.53;;;24.30;56.30;;;;;;20652;6878;117655;-88
2022/08/27 09:16:08;;;;;;;35.13;31.97;;;24.50;55.80;;;;;;20409;6878;281490;-88
2022/08/27 09:18:38;;;;;;;31.03;28.13;;;24.50;55.70;;;;;;20637;6878;118424;-88
2022/08/27 09:21:27;;;;;;;27.97;25.57;;;24.50;55.70;;;;;;20680;6878;68608;-89
2022/08/27 09:24:02;;;;;;;31.80;28.50;;;24.30;56.00;;;;;;20657;6878;117931;-88
2022/08/27 09:26:28;;;;;;;35.13;31.83;;;24.30;56.50;;;;;;20417;6878;313653;-89
2022/08/27 09:29:20;;;;;;;29.83;27.20;;;24.70;56.00;;;;;;20660;6878;118387;-87
2022/08/27 09:31:58;;;;;;;33.67;30.60;;;24.80;55.80;;;;;;20471;6878;338163;-86
2022/08/27 09:34:26;;;;;;;34.73;31.57;;;25.50;53.80;;;;;;20411;6878;281964;-87
2022/08/27 09:36:54;;;;;;;28.00;25.27;;;25.50;53.80;;;;;;20638;6876;118247;-91
2022/08/27 09:39:19;;;;;;;34.35;31.17;;;25.50;53.70;;;;;;20422;6877;308818;-92
2022/08/27 09:41:45;;;;;;;29.30;26.53;;;25.50;53.70;;;;;;20630;6877;118226;-88
2022/08/27 09:44:10;;;;;;;29.83;27.00;;;25.40;54.00;;;;;;20644;6877;115339;-90
2022/08/27 09:46:36;;;;;;;31.37;28.50;;;25.20;54.50;;;;;;20421;6877;310140;-90
2022/08/27 09:49:12;;;;;;;30.23;27.43;;;25.30;54.90;;;;;;20449;6878;309731;-88
2022/08/27 09:51:38;;;;;;;31.10;28.00;;;25.60;54.20;;;;;;20655;6878;118293;-89
2022/08/27 09:54:05;;;;;;;33.73;30.57;;;25.50;54.00;;;;;;20414;6878;284320;-86
2022/08/27 09:56:33;;;;;;;32.45;29.45;;;25.60;53.50;;;;;;20418;6878;311950;-85
2022/08/27 09:59:12;;;;;;;29.67;26.73;;;25.80;53.10;;;;;;20655;6878;117838;-85
2022/08/27 10:01:50;;;;;;;28.20;25.50;;;25.60;53.20;;;;;;20621;6878;118434;-90
2022/08/27 10:04:17;;;;;;;26.80;24.03;;;25.40;53.70;;;;;;20414;6878;310171;-89
2022/08/27 10:06:46;;;;;;;27.23;24.43;;;25.40;53.00;;;;;;20633;6878;119086;-90
2022/08/27 10:09:32;;;;;;;34.28;30.77;;;25.40;55.40;;;;;;20447;6878;280474;-88
2022/08/27 10:11:58;;;;;;;33.87;30.87;;;25.40;55.30;;;;;;20437;6878;309309;-88
2022/08/27 10:14:24;;;;;;;29.33;26.20;;;25.00;56.20;;;;;;20633;6878;118139;-88
2022/08/27 10:16:56;;;;;;;27.97;25.37;;;25.00;56.20;;;;;;20646;6878;118704;-87
2022/08/27 10:19:39;;;;;;;32.53;29.45;;;24.50;56.90;;;;;;20452;6878;342916;-88
2022/08/27 10:22:11;;;;;;;30.53;27.47;;;24.50;58.60;;;;;;20633;6878;117688;-86
2022/08/27 10:24:36;;;;;;;32.47;29.47;;;24.30;58.40;;;;;;20432;6878;311245;-87
2022/08/27 10:27:12;;;;;;;34.20;31.10;;;24.40;59.10;;;;;;20454;6878;295660;-86
2022/08/27 10:29:48;;;;;;;30.07;27.17;;;24.60;58.30;;;;;;20659;6878;117930;-88
2022/08/27 10:32:43;;;;;;;26.83;24.33;;;24.30;58.40;;;;;;20668;6878;116704;-87
2022/08/27 10:35:15;;;;;;;27.70;25.10;;;23.70;59.40;;;;;;20701;6878;118244;-89
2022/08/27 10:37:51;;;;;;;29.60;26.90;;;23.70;59.40;;;;;;20471;6878;279129;-88
2022/08/27 10:40:17;;;;;;;28.05;25.35;;;23.90;60.50;;;;;;20453;6878;309594;-89
2022/08/27 10:42:52;;;;;;;24.00;21.83;;;24.20;60.40;;;;;;20651;6878;118040;-87
2022/08/27 10:45:42;;;;;;;22.27;20.27;;;23.90;60.50;;;;;;20649;6878;117718;-86
2022/08/27 10:48:28;;;;;;;25.83;23.42;;;23.90;60.00;;;;;;20464;6876;308463;-85
2022/08/27 10:50:54;;;;;;;21.67;19.60;;;24.10;59.70;;;;;;20680;6877;118434;-87
2022/08/27 10:53:26;;;;;;;20.67;18.98;;;24.00;59.50;;;;;;20438;6877;311711;-88
2022/08/27 10:55:52;;;;;;;21.83;19.73;;;24.30;59.40;;;;;;20459;6877;281091;-88
2022/08/27 10:58:31;;;;;;;18.87;17.48;;;24.30;59.40;;;;;;20413;6877;341154;-89
2022/08/27 11:00:57;;;;;;;16.90;15.60;;;24.50;58.50;;;;;;20430;6878;309213;-91
2022/08/27 11:03:25;;;;;;;13.03;12.13;;;24.70;57.40;;;;;;20684;6878;117732;-88
2022/08/27 11:05:50;;;;;;;15.20;14.20;;;24.50;57.60;;;;;;20433;6878;330955;-89
2022/08/27 11:08:23;;;;;;;13.87;12.87;;;24.20;58.40;;;;;;20646;6878;152674;-89
2022/08/27 11:11:01;;;;;;;10.83;10.03;;;24.20;58.40;;;;;;20665;6878;118979;-90
2022/08/27 11:13:30;;;;;;;10.77;10.00;;;23.80;58.80;;;;;;20581;6878;117716;-89
2022/08/27 11:15:55;;;;;;;12.27;11.30;;;23.50;59.50;;;;;;20643;6878;118220;-89
2022/08/27 11:18:41;;;;;;;10.90;10.20;;;23.20;60.00;;;;;;20660;6878;118333;-90
2022/08/27 11:21:26;;;;;;;12.02;11.23;;;23.00;60.50;;;;;;20478;6878;337788;-91
2022/08/27 11:23:52;;;;;;;11.53;10.70;;;23.20;62.10;;;;;;20710;6878;120706;-91
2022/08/27 11:26:17;;;;;;;10.20;9.60;;;23.20;61.90;;;;;;20695;6878;117056;-91
2022/08/27 11:28:43;;;;;;;14.38;13.48;;;22.90;62.20;;;;;;20529;6878;311174;-91
2022/08/27 11:31:21;;;;;;;15.27;14.03;;;23.10;63.00;;;;;;20713;6878;119809;-89
2022/08/27 11:33:56;;;;;;;14.55;13.65;;;23.20;62.70;;;;;;20426;6878;310013;-88
2022/08/27 11:37:02;;;;;;;15.80;14.68;;;23.30;63.30;;;;;;20395;6878;280421;-90
2022/08/27 11:39:50;;;;;;;13.48;12.48;;;23.60;62.50;;;;;;20463;6878;340911;-87
2022/08/27 11:42:34;;;;;;;12.53;11.60;;;23.90;61.20;;;;;;20632;6878;127632;-92
2022/08/27 11:44:58;;;;;;;11.17;10.47;;;23.60;61.20;;;;;;20660;6878;117534;-90
2022/08/27 11:47:23;;;;;;;11.10;10.37;;;23.10;61.70;;;;;;20651;6878;119889;-87
2022/08/27 11:49:53;;;;;;;10.55;9.85;;;22.60;63.20;;;;;;20643;6878;116801;-89
2022/08/27 11:52:22;;;;;;;11.17;10.47;;;22.60;63.30;;;;;;20643;6878;117547;-90
2022/08/27 11:54:47;;;;;;;10.50;9.80;;;22.40;63.80;;;;;;20682;6878;117024;-86
2022/08/27 11:57:29;;;;;;;12.00;10.85;;;22.30;64.20;;;;;;20694;6878;116603;-87
2022/08/27 11:59:55;;;;;;;13.03;11.83;;;22.10;64.80;;;;;;20628;6876;118229;-86
2022/08/27 12:02:20;;;;;;;15.47;14.00;;;22.00;65.70;;;;;;20652;6877;117923;-87
2022/08/27 12:04:47;;;;;;;21.23;19.30;;;22.00;66.40;;;;;;20449;6877;297566;-87
2022/08/27 12:07:13;;;;;;;18.87;17.37;;;22.20;67.30;;;;;;20661;6877;118178;-87
2022/08/27 12:10:02;;;;;;;17.30;15.90;;;22.20;67.30;;;;;;20671;6877;117855;-92
2022/08/27 12:13:01;;;;;;;20.27;18.67;;;22.00;67.10;;;;;;20268;6878;309299;-88
2022/08/27 12:15:59;;;;;;;22.27;20.57;;;22.80;70.10;;;;;;20459;6878;308094;-88
2022/08/27 12:18:30;;;;;;;20.63;19.13;;;23.10;69.00;;;;;;20438;6878;301727;-87
2022/08/27 12:21:31;;;;;;;19.30;17.83;;;23.10;69.00;;;;;;19830;6878;118260;-87
2022/08/27 12:24:00;;;;;;;21.87;19.60;;;23.00;69.00;;;;;;20671;6878;117710;-87
2022/08/27 12:26:30;;;;;;;18.63;17.13;;;22.70;68.80;;;;;;20650;6878;119925;-86
2022/08/27 12:29:28;;;;;;;22.13;20.13;;;22.30;70.50;;;;;;20638;6878;117835;-86
2022/08/27 12:31:52;;;;;;;22.73;20.83;;;22.20;70.30;;;;;;20442;6878;310309;-87
2022/08/27 12:34:20;;;;;;;19.58;18.08;;;22.60;71.80;;;;;;20644;6878;118200;-89
2022/08/27 12:36:46;;;;;;;20.10;18.23;;;22.60;71.70;;;;;;20657;6878;117198;-87
2022/08/27 12:39:18;;;;;;;19.97;18.37;;;22.50;71.60;;;;;;20663;6878;117754;-89
2022/08/27 12:55:35;;;;;;;21.12;19.52;;;24.00;64.80;;;;;;21098;6514;306173;-86
2022/08/27 12:58:37;;;;;;;19.50;18.00;;;24.00;64.50;;;;;;20527;6849;309196;-87
2022/08/27 13:01:25;;;;;;;18.57;17.17;;;24.00;65.00;;;;;;20553;6844;308706;-88
2022/08/27 13:03:52;;;;;;;16.83;15.63;;;24.00;64.70;;;;;;20809;6829;122227;-90
2022/08/27 13:06:36;;;;;;;17.47;16.27;;;23.60;65.00;;;;;;20545;6829;308890;-90
2022/08/27 13:09:05;;;;;;;18.10;16.77;;;23.40;66.20;;;;;;20575;6829;279566;-89
2022/08/27 13:11:30;;;;;;;19.12;17.65;;;23.60;67.40;;;;;;20575;6829;308946;-89
2022/08/27 13:14:07;;;;;;;18.40;17.20;;;23.70;64.80;;;;;;20575;6833;307580;-88
2022/08/27 13:16:32;;;;;;;17.87;16.37;;;23.70;64.40;;;;;;20676;6833;119867;-89
2022/08/27 13:18:59;;;;;;;19.62;18.15;;;23.20;66.40;;;;;;20586;6833;338738;-88